sensor_id;sensor_type;location;lat;lon;timestamp;temperature;humidity
12049;DHT22;6085;49.452;8.502;2023-08-17T00:02:24;18.90;99.90
12049;DHT22;6085;49.452;8.502;2023-08-17T00:06:28;18.80;99.90
12049;DHT22;6085;49.452;8.502;2023-08-17T00:10:30;18.80;99.90
12049;DHT22;6085;49.452;8.502;2023-08-17T00:14:32;18.80;99.90
12049;DHT22;6085;49.452;8.502;2023-08-17T00:18:34;18.70;99.90
12049;DHT22;6085;49.452;8.502;2023-08-17T00:22:37;18.70;99.90
12049;DHT22;6085;49.452;8.502;2023-08-17T00:26:39;18.60;99.90
12049;DHT22;6085;49.452;8.502;2023-08-17T00:30:41;18.60;99.90
12049;DHT22;6085;49.452;8.502;2023-08-17T00:34:43;18.60;99.90
12049;DHT22;6085;49.452;8.502;2023-08-17T00:38:46;18.50;99.90
12049;DHT22;6085;49.452;8.502;2023-08-17T00:42:48;18.50;99.90
12049;DHT22;6085;49.452;8.502;2023-08-17T00:46:50;18.50;99.90
12049;DHT22;6085;49.452;8.502;2023-08-17T00:50:53;18.60;99.90
12049;DHT22;6085;49.452;8.502;2023-08-17T00:54:57;18.60;99.90
12049;DHT22;6085;49.452;8.502;2023-08-17T00:58:59;18.50;99.90
12049;DHT22;6085;49.452;8.502;2023-08-17T01:03:01;18.50;99.90
12049;DHT22;6085;49.452;8.502;2023-08-17T01:07:03;18.50;99.90
12049;DHT22;6085;49.452;8.502;2023-08-17T01:11:14;18.50;99.90
12049;DHT22;6085;49.452;8.502;2023-08-17T01:15:20;18.40;99.90
12049;DHT22;6085;49.452;8.502;2023-08-17T01:19:25;18.40;99.90
12049;DHT22;6085;49.452;8.502;2023-08-17T01:23:29;18.40;99.90
12049;DHT22;6085;49.452;8.502;2023-08-17T01:27:36;18.40;99.90
12049;DHT22;6085;49.452;8.502;2023-08-17T01:31:44;18.40;99.90
12049;DHT22;6085;49.452;8.502;2023-08-17T01:35:56;18.40;99.90
12049;DHT22;6085;49.452;8.502;2023-08-17T01:40:02;18.40;99.90
12049;DHT22;6085;49.452;8.502;2023-08-17T01:44:06;18.30;99.90
12049;DHT22;6085;49.452;8.502;2023-08-17T01:48:10;18.20;99.90
12049;DHT22;6085;49.452;8.502;2023-08-17T01:52:12;18.20;99.90
12049;DHT22;6085;49.452;8.502;2023-08-17T01:56:16;18.20;99.90
12049;DHT22;6085;49.452;8.502;2023-08-17T02:00:18;18.10;99.90
12049;DHT22;6085;49.452;8.502;2023-08-17T02:04:20;18.10;99.90
12049;DHT22;6085;49.452;8.502;2023-08-17T02:08:22;18.10;99.90
12049;DHT22;6085;49.452;8.502;2023-08-17T02:12:25;18.10;99.90
12049;DHT22;6085;49.452;8.502;2023-08-17T02:16:27;18.00;99.90
12049;DHT22;6085;49.452;8.502;2023-08-17T02:20:29;18.00;99.90
12049;DHT22;6085;49.452;8.502;2023-08-17T02:24:31;17.90;99.90
12049;DHT22;6085;49.452;8.502;2023-08-17T02:28:34;17.90;99.90
12049;DHT22;6085;49.452;8.502;2023-08-17T02:32:36;17.80;99.90
12049;DHT22;6085;49.452;8.502;2023-08-17T02:36:38;17.80;99.90
12049;DHT22;6085;49.452;8.502;2023-08-17T02:40:40;17.80;99.90
12049;DHT22;6085;49.452;8.502;2023-08-17T02:44:43;17.80;99.90
12049;DHT22;6085;49.452;8.502;2023-08-17T02:48:45;17.80;99.90
12049;DHT22;6085;49.452;8.502;2023-08-17T02:52:48;17.90;99.90
12049;DHT22;6085;49.452;8.502;2023-08-17T02:56:50;17.90;99.90
12049;DHT22;6085;49.452;8.502;2023-08-17T03:00:53;17.90;99.90
12049;DHT22;6085;49.452;8.502;2023-08-17T03:04:55;17.90;99.90
12049;DHT22;6085;49.452;8.502;2023-08-17T03:08:57;17.90;99.90
12049;DHT22;6085;49.452;8.502;2023-08-17T03:12:59;17.80;99.90
12049;DHT22;6085;49.452;8.502;2023-08-17T03:17:02;17.70;99.90
12049;DHT22;6085;49.452;8.502;2023-08-17T03:21:04;17.60;99.90
12049;DHT22;6085;49.452;8.502;2023-08-17T03:25:07;17.60;99.90
12049;DHT22;6085;49.452;8.502;2023-08-17T03:29:09;17.60;99.90
12049;DHT22;6085;49.452;8.502;2023-08-17T03:33:12;17.60;99.90
12049;DHT22;6085;49.452;8.502;2023-08-17T03:37:14;17.60;99.90
12049;DHT22;6085;49.452;8.502;2023-08-17T03:41:16;17.60;99.90
12049;DHT22;6085;49.452;8.502;2023-08-17T03:45:18;17.60;99.90
12049;DHT22;6085;49.452;8.502;2023-08-17T03:49:22;17.60;99.90
12049;DHT22;6085;49.452;8.502;2023-08-17T03:53:23;17.70;99.90
12049;DHT22;6085;49.452;8.502;2023-08-17T03:57:25;17.60;99.90
12049;DHT22;6085;49.452;8.502;2023-08-17T04:01:27;17.60;99.90
12049;DHT22;6085;49.452;8.502;2023-08-17T04:05:30;17.60;99.90
12049;DHT22;6085;49.452;8.502;2023-08-17T04:09:32;17.60;99.90
12049;DHT22;6085;49.452;8.502;2023-08-17T04:13:35;17.60;99.90
12049;DHT22;6085;49.452;8.502;2023-08-17T04:17:37;17.60;99.90
12049;DHT22;6085;49.452;8.502;2023-08-17T04:21:40;17.60;99.90
12049;DHT22;6085;49.452;8.502;2023-08-17T04:25:43;17.60;99.90
12049;DHT22;6085;49.452;8.502;2023-08-17T04:29:46;17.70;99.90
12049;DHT22;6085;49.452;8.502;2023-08-17T04:33:47;17.80;99.90
12049;DHT22;6085;49.452;8.502;2023-08-17T04:37:51;17.90;99.90
12049;DHT22;6085;49.452;8.502;2023-08-17T04:41:52;17.80;99.90
12049;DHT22;6085;49.452;8.502;2023-08-17T04:45:55;17.90;99.90
12049;DHT22;6085;49.452;8.502;2023-08-17T04:49:56;17.90;99.90
12049;DHT22;6085;49.452;8.502;2023-08-17T04:54:00;17.90;99.90
12049;DHT22;6085;49.452;8.502;2023-08-17T04:58:02;17.90;99.90
12049;DHT22;6085;49.452;8.502;2023-08-17T05:02:04;18.00;99.90
12049;DHT22;6085;49.452;8.502;2023-08-17T05:06:06;18.00;99.90
12049;DHT22;6085;49.452;8.502;2023-08-17T05:10:10;18.00;99.90
12049;DHT22;6085;49.452;8.502;2023-08-17T05:14:12;18.00;99.90
12049;DHT22;6085;49.452;8.502;2023-08-17T05:18:14;18.00;99.90
12049;DHT22;6085;49.452;8.502;2023-08-17T05:22:16;18.10;99.90
12049;DHT22;6085;49.452;8.502;2023-08-17T05:26:19;18.20;99.90
12049;DHT22;6085;49.452;8.502;2023-08-17T05:30:22;18.20;99.90
12049;DHT22;6085;49.452;8.502;2023-08-17T05:34:24;18.20;99.90
12049;DHT22;6085;49.452;8.502;2023-08-17T05:38:26;18.30;99.90
12049;DHT22;6085;49.452;8.502;2023-08-17T05:42:29;18.40;99.90
12049;DHT22;6085;49.452;8.502;2023-08-17T05:46:31;18.50;99.90
12049;DHT22;6085;49.452;8.502;2023-08-17T05:50:33;18.80;99.90
12049;DHT22;6085;49.452;8.502;2023-08-17T05:54:35;18.90;99.90
12049;DHT22;6085;49.452;8.502;2023-08-17T05:58:39;19.10;99.90
12049;DHT22;6085;49.452;8.502;2023-08-17T06:02:41;19.20;99.90
12049;DHT22;6085;49.452;8.502;2023-08-17T06:06:43;19.40;99.90
12049;DHT22;6085;49.452;8.502;2023-08-17T06:10:44;19.50;99.90
12049;DHT22;6085;49.452;8.502;2023-08-17T06:14:48;19.70;99.90
12049;DHT22;6085;49.452;8.502;2023-08-17T06:18:50;19.80;99.90
12049;DHT22;6085;49.452;8.502;2023-08-17T06:22:52;19.90;99.90
12049;DHT22;6085;49.452;8.502;2023-08-17T06:26:54;19.90;99.90
12049;DHT22;6085;49.452;8.502;2023-08-17T06:30:57;20.00;99.90
12049;DHT22;6085;49.452;8.502;2023-08-17T06:34:59;20.10;99.90
12049;DHT22;6085;49.452;8.502;2023-08-17T06:39:01;20.20;99.90
12049;DHT22;6085;49.452;8.502;2023-08-17T06:43:03;20.40;99.90
12049;DHT22;6085;49.452;8.502;2023-08-17T06:47:07;20.50;99.90
12049;DHT22;6085;49.452;8.502;2023-08-17T06:51:08;20.70;99.90
12049;DHT22;6085;49.452;8.502;2023-08-17T06:55:11;20.80;99.90
12049;DHT22;6085;49.452;8.502;2023-08-17T06:59:13;20.90;99.90
12049;DHT22;6085;49.452;8.502;2023-08-17T07:03:16;21.00;99.90
12049;DHT22;6085;49.452;8.502;2023-08-17T07:07:18;20.90;99.90
12049;DHT22;6085;49.452;8.502;2023-08-17T07:11:20;21.00;99.90
12049;DHT22;6085;49.452;8.502;2023-08-17T07:15:22;21.30;99.90
12049;DHT22;6085;49.452;8.502;2023-08-17T07:19:26;21.60;99.90
12049;DHT22;6085;49.452;8.502;2023-08-17T07:23:28;22.20;99.90
12049;DHT22;6085;49.452;8.502;2023-08-17T07:27:29;22.90;99.90
12049;DHT22;6085;49.452;8.502;2023-08-17T07:31:31;23.50;99.90
12049;DHT22;6085;49.452;8.502;2023-08-17T07:35:35;23.80;99.90
12049;DHT22;6085;49.452;8.502;2023-08-17T07:39:39;23.90;99.90
12049;DHT22;6085;49.452;8.502;2023-08-17T07:43:41;24.00;99.90
12049;DHT22;6085;49.452;8.502;2023-08-17T07:47:44;24.30;99.90
12049;DHT22;6085;49.452;8.502;2023-08-17T07:51:47;24.40;99.90
12049;DHT22;6085;49.452;8.502;2023-08-17T07:55:49;24.50;99.90
12049;DHT22;6085;49.452;8.502;2023-08-17T07:59:51;24.80;99.90
12049;DHT22;6085;49.452;8.502;2023-08-17T08:03:54;24.60;99.90
12049;DHT22;6085;49.452;8.502;2023-08-17T08:07:57;24.40;99.90
12049;DHT22;6085;49.452;8.502;2023-08-17T08:11:59;24.40;99.90
12049;DHT22;6085;49.452;8.502;2023-08-17T08:16:01;24.50;99.90
12049;DHT22;6085;49.452;8.502;2023-08-17T08:20:04;25.70;99.90
12049;DHT22;6085;49.452;8.502;2023-08-17T08:24:08;26.90;99.90
12049;DHT22;6085;49.452;8.502;2023-08-17T08:28:10;27.60;99.90
12049;DHT22;6085;49.452;8.502;2023-08-17T08:32:12;28.30;99.90
12049;DHT22;6085;49.452;8.502;2023-08-17T08:36:14;29.10;99.90
12049;DHT22;6085;49.452;8.502;2023-08-17T08:40:17;30.10;99.90
12049;DHT22;6085;49.452;8.502;2023-08-17T08:44:21;30.50;99.90
12049;DHT22;6085;49.452;8.502;2023-08-17T08:48:26;31.90;99.90
12049;DHT22;6085;49.452;8.502;2023-08-17T08:52:33;31.40;99.90
12049;DHT22;6085;49.452;8.502;2023-08-17T08:56:39;33.60;99.90
12049;DHT22;6085;49.452;8.502;2023-08-17T09:00:45;35.20;99.90
12049;DHT22;6085;49.452;8.502;2023-08-17T09:04:48;35.90;97.70
12049;DHT22;6085;49.452;8.502;2023-08-17T09:08:51;34.30;98.70
12049;DHT22;6085;49.452;8.502;2023-08-17T09:12:55;34.30;99.00
12049;DHT22;6085;49.452;8.502;2023-08-17T09:16:57;33.30;99.80
12049;DHT22;6085;49.452;8.502;2023-08-17T09:20:59;31.60;99.90
12049;DHT22;6085;49.452;8.502;2023-08-17T09:25:01;32.30;99.90
12049;DHT22;6085;49.452;8.502;2023-08-17T09:29:16;32.40;99.90
12049;DHT22;6085;49.452;8.502;2023-08-17T09:33:19;34.00;99.50
12049;DHT22;6085;49.452;8.502;2023-08-17T09:37:21;36.10;95.80
12049;DHT22;6085;49.452;8.502;2023-08-17T09:41:22;37.20;93.30
12049;DHT22;6085;49.452;8.502;2023-08-17T09:45:27;38.30;89.50
12049;DHT22;6085;49.452;8.502;2023-08-17T09:49:31;38.20;85.70
12049;DHT22;6085;49.452;8.502;2023-08-17T09:53:37;35.90;90.20
12049;DHT22;6085;49.452;8.502;2023-08-17T09:57:40;34.60;92.30
12049;DHT22;6085;49.452;8.502;2023-08-17T10:01:48;35.50;91.30
12049;DHT22;6085;49.452;8.502;2023-08-17T10:05:55;35.40;91.20
12049;DHT22;6085;49.452;8.502;2023-08-17T10:10:02;36.60;89.70
12049;DHT22;6085;49.452;8.502;2023-08-17T10:14:11;37.50;85.90
12049;DHT22;6085;49.452;8.502;2023-08-17T10:18:22;38.20;82.70
12049;DHT22;6085;49.452;8.502;2023-08-17T10:22:31;38.50;81.10
12049;DHT22;6085;49.452;8.502;2023-08-17T10:26:35;38.80;78.80
12049;DHT22;6085;49.452;8.502;2023-08-17T10:30:37;37.40;79.80
12049;DHT22;6085;49.452;8.502;2023-08-17T10:34:41;37.70;80.40
12049;DHT22;6085;49.452;8.502;2023-08-17T10:38:43;37.70;80.40
12049;DHT22;6085;49.452;8.502;2023-08-17T10:42:53;37.90;79.60
12049;DHT22;6085;49.452;8.502;2023-08-17T10:46:56;38.00;78.80
12049;DHT22;6085;49.452;8.502;2023-08-17T10:51:04;37.60;79.10
12049;DHT22;6085;49.452;8.502;2023-08-17T10:55:08;37.60;79.40
12049;DHT22;6085;49.452;8.502;2023-08-17T10:59:24;38.10;78.40
12049;DHT22;6085;49.452;8.502;2023-08-17T11:03:27;38.10;77.20
12049;DHT22;6085;49.452;8.502;2023-08-17T11:07:38;37.60;78.30
12049;DHT22;6085;49.452;8.502;2023-08-17T11:11:40;38.40;75.80
12049;DHT22;6085;49.452;8.502;2023-08-17T11:15:43;38.30;76.80
12049;DHT22;6085;49.452;8.502;2023-08-17T11:19:45;38.70;75.90
12049;DHT22;6085;49.452;8.502;2023-08-17T11:23:49;38.20;75.90
12049;DHT22;6085;49.452;8.502;2023-08-17T11:27:50;37.40;77.80
12049;DHT22;6085;49.452;8.502;2023-08-17T11:31:53;37.10;78.90
12049;DHT22;6085;49.452;8.502;2023-08-17T11:35:55;36.70;80.20
12049;DHT22;6085;49.452;8.502;2023-08-17T11:39:58;36.20;80.10
12049;DHT22;6085;49.452;8.502;2023-08-17T11:44:00;34.70;84.40
12049;DHT22;6085;49.452;8.502;2023-08-17T11:48:04;34.90;85.00
12049;DHT22;6085;49.452;8.502;2023-08-17T11:52:09;34.80;85.10
12049;DHT22;6085;49.452;8.502;2023-08-17T11:56:12;34.90;87.10
12049;DHT22;6085;49.452;8.502;2023-08-17T12:00:19;34.40;88.70
12049;DHT22;6085;49.452;8.502;2023-08-17T12:04:22;34.20;89.50
12049;DHT22;6085;49.452;8.502;2023-08-17T12:08:24;33.30;91.40
12049;DHT22;6085;49.452;8.502;2023-08-17T12:12:27;32.30;93.60
12049;DHT22;6085;49.452;8.502;2023-08-17T12:16:30;32.00;94.80
12049;DHT22;6085;49.452;8.502;2023-08-17T12:20:33;31.40;97.40
12049;DHT22;6085;49.452;8.502;2023-08-17T12:24:37;30.50;99.90
12049;DHT22;6085;49.452;8.502;2023-08-17T12:28:41;30.00;99.90
12049;DHT22;6085;49.452;8.502;2023-08-17T12:32:43;29.60;99.90
12049;DHT22;6085;49.452;8.502;2023-08-17T12:36:45;29.20;99.90
12049;DHT22;6085;49.452;8.502;2023-08-17T12:40:50;29.10;99.90
12049;DHT22;6085;49.452;8.502;2023-08-17T12:44:53;29.20;99.90
12049;DHT22;6085;49.452;8.502;2023-08-17T12:48:55;29.10;99.90
12049;DHT22;6085;49.452;8.502;2023-08-17T12:52:57;29.40;99.90
12049;DHT22;6085;49.452;8.502;2023-08-17T12:56:59;29.80;99.90
12049;DHT22;6085;49.452;8.502;2023-08-17T13:01:04;29.80;99.90
12049;DHT22;6085;49.452;8.502;2023-08-17T13:05:06;29.60;99.90
12049;DHT22;6085;49.452;8.502;2023-08-17T13:09:08;29.50;99.90
12049;DHT22;6085;49.452;8.502;2023-08-17T13:13:12;29.40;99.90
12049;DHT22;6085;49.452;8.502;2023-08-17T13:17:16;29.20;99.90
12049;DHT22;6085;49.452;8.502;2023-08-17T13:21:18;28.80;99.90
12049;DHT22;6085;49.452;8.502;2023-08-17T13:25:20;28.40;99.90
12049;DHT22;6085;49.452;8.502;2023-08-17T13:29:22;28.10;99.90
12049;DHT22;6085;49.452;8.502;2023-08-17T13:33:26;27.70;99.90
12049;DHT22;6085;49.452;8.502;2023-08-17T13:37:28;27.40;99.90
12049;DHT22;6085;49.452;8.502;2023-08-17T13:41:30;27.10;99.90
12049;DHT22;6085;49.452;8.502;2023-08-17T13:45:32;26.90;99.90
12049;DHT22;6085;49.452;8.502;2023-08-17T13:49:36;26.90;99.90
12049;DHT22;6085;49.452;8.502;2023-08-17T13:53:39;26.90;99.90
12049;DHT22;6085;49.452;8.502;2023-08-17T13:57:41;27.00;99.90
12049;DHT22;6085;49.452;8.502;2023-08-17T14:01:47;27.20;99.90
12049;DHT22;6085;49.452;8.502;2023-08-17T14:05:50;27.50;99.90
12049;DHT22;6085;49.452;8.502;2023-08-17T14:09:52;28.10;99.90
12049;DHT22;6085;49.452;8.502;2023-08-17T14:13:54;28.60;99.90
12049;DHT22;6085;49.452;8.502;2023-08-17T14:17:56;29.00;99.90
12049;DHT22;6085;49.452;8.502;2023-08-17T14:21:59;29.10;99.90
12049;DHT22;6085;49.452;8.502;2023-08-17T14:26:01;29.30;99.90
12049;DHT22;6085;49.452;8.502;2023-08-17T14:30:04;29.30;99.90
12049;DHT22;6085;49.452;8.502;2023-08-17T14:34:06;29.30;99.90
12049;DHT22;6085;49.452;8.502;2023-08-17T14:38:10;29.20;99.90
12049;DHT22;6085;49.452;8.502;2023-08-17T14:42:13;29.10;99.90
12049;DHT22;6085;49.452;8.502;2023-08-17T14:46:15;28.90;99.90
12049;DHT22;6085;49.452;8.502;2023-08-17T14:50:18;29.00;99.90
12049;DHT22;6085;49.452;8.502;2023-08-17T14:54:21;29.10;99.90
12049;DHT22;6085;49.452;8.502;2023-08-17T14:58:23;29.10;99.90
12049;DHT22;6085;49.452;8.502;2023-08-17T15:02:25;29.10;99.90
12049;DHT22;6085;49.452;8.502;2023-08-17T15:06:28;29.10;99.90
12049;DHT22;6085;49.452;8.502;2023-08-17T15:10:32;29.30;99.90
12049;DHT22;6085;49.452;8.502;2023-08-17T15:14:35;29.50;99.90
12049;DHT22;6085;49.452;8.502;2023-08-17T15:18:40;29.70;99.90
12049;DHT22;6085;49.452;8.502;2023-08-17T15:22:42;29.70;99.90
12049;DHT22;6085;49.452;8.502;2023-08-17T15:26:45;29.80;99.90
12049;DHT22;6085;49.452;8.502;2023-08-17T15:30:59;29.70;99.90
12049;DHT22;6085;49.452;8.502;2023-08-17T15:35:01;29.50;99.90
12049;DHT22;6085;49.452;8.502;2023-08-17T15:39:04;29.30;99.90
12049;DHT22;6085;49.452;8.502;2023-08-17T15:43:07;29.00;99.90
12049;DHT22;6085;49.452;8.502;2023-08-17T15:47:09;29.00;99.90
12049;DHT22;6085;49.452;8.502;2023-08-17T15:51:11;29.10;99.90
12049;DHT22;6085;49.452;8.502;2023-08-17T15:55:13;29.10;99.90
12049;DHT22;6085;49.452;8.502;2023-08-17T15:59:17;29.00;99.90
12049;DHT22;6085;49.452;8.502;2023-08-17T16:03:19;28.90;99.90
12049;DHT22;6085;49.452;8.502;2023-08-17T16:07:20;28.80;99.90
12049;DHT22;6085;49.452;8.502;2023-08-17T16:11:22;28.60;99.90
12049;DHT22;6085;49.452;8.502;2023-08-17T16:15:26;28.60;99.90
12049;DHT22;6085;49.452;8.502;2023-08-17T16:19:28;28.50;99.90
12049;DHT22;6085;49.452;8.502;2023-08-17T16:23:30;28.50;99.90
12049;DHT22;6085;49.452;8.502;2023-08-17T16:27:32;28.40;99.90
12049;DHT22;6085;49.452;8.502;2023-08-17T16:31:35;28.30;99.90
12049;DHT22;6085;49.452;8.502;2023-08-17T16:35:37;28.30;99.90
12049;DHT22;6085;49.452;8.502;2023-08-17T16:39:39;28.20;99.90
12049;DHT22;6085;49.452;8.502;2023-08-17T16:43:41;28.20;99.90
12049;DHT22;6085;49.452;8.502;2023-08-17T16:47:44;28.30;99.90
12049;DHT22;6085;49.452;8.502;2023-08-17T16:51:46;28.30;99.90
12049;DHT22;6085;49.452;8.502;2023-08-17T16:55:48;28.20;99.90
12049;DHT22;6085;49.452;8.502;2023-08-17T16:59:50;28.20;99.90
12049;DHT22;6085;49.452;8.502;2023-08-17T17:03:53;28.20;99.90
12049;DHT22;6085;49.452;8.502;2023-08-17T17:07:55;28.10;99.90
12049;DHT22;6085;49.452;8.502;2023-08-17T17:11:57;28.00;99.90
12049;DHT22;6085;49.452;8.502;2023-08-17T17:15:59;27.80;99.90
12049;DHT22;6085;49.452;8.502;2023-08-17T17:20:03;27.70;99.90
12049;DHT22;6085;49.452;8.502;2023-08-17T17:24:06;27.60;99.90
12049;DHT22;6085;49.452;8.502;2023-08-17T17:28:08;27.50;99.90
12049;DHT22;6085;49.452;8.502;2023-08-17T17:32:10;27.40;99.90
12049;DHT22;6085;49.452;8.502;2023-08-17T17:36:13;27.20;99.90
12049;DHT22;6085;49.452;8.502;2023-08-17T17:40:15;27.10;99.90
12049;DHT22;6085;49.452;8.502;2023-08-17T17:44:17;27.00;99.90
12049;DHT22;6085;49.452;8.502;2023-08-17T17:48:19;26.90;99.90
12049;DHT22;6085;49.452;8.502;2023-08-17T17:52:23;26.80;99.90
12049;DHT22;6085;49.452;8.502;2023-08-17T17:56:37;26.60;99.90
12049;DHT22;6085;49.452;8.502;2023-08-17T18:00:39;26.50;99.90
12049;DHT22;6085;49.452;8.502;2023-08-17T18:04:42;26.30;99.90
12049;DHT22;6085;49.452;8.502;2023-08-17T18:08:45;26.20;99.90
12049;DHT22;6085;49.452;8.502;2023-08-17T18:12:47;26.10;99.90
12049;DHT22;6085;49.452;8.502;2023-08-17T18:16:51;26.10;99.90
12049;DHT22;6085;49.452;8.502;2023-08-17T18:20:53;26.00;99.90
12049;DHT22;6085;49.452;8.502;2023-08-17T18:24:57;25.90;99.90
12049;DHT22;6085;49.452;8.502;2023-08-17T18:28:59;25.80;99.90
12049;DHT22;6085;49.452;8.502;2023-08-17T18:33:01;25.70;99.90
12049;DHT22;6085;49.452;8.502;2023-08-17T18:37:03;25.60;99.90
12049;DHT22;6085;49.452;8.502;2023-08-17T18:41:07;25.50;99.90
12049;DHT22;6085;49.452;8.502;2023-08-17T18:45:10;25.40;99.90
12049;DHT22;6085;49.452;8.502;2023-08-17T18:49:12;25.30;99.90
12049;DHT22;6085;49.452;8.502;2023-08-17T18:53:14;25.20;99.90
12049;DHT22;6085;49.452;8.502;2023-08-17T18:57:17;25.00;99.90
12049;DHT22;6085;49.452;8.502;2023-08-17T19:01:19;25.00;99.90
12049;DHT22;6085;49.452;8.502;2023-08-17T19:05:21;24.90;99.90
12049;DHT22;6085;49.452;8.502;2023-08-17T19:09:23;24.80;99.90
12049;DHT22;6085;49.452;8.502;2023-08-17T19:13:27;24.80;99.90
12049;DHT22;6085;49.452;8.502;2023-08-17T19:17:29;24.70;99.90
12049;DHT22;6085;49.452;8.502;2023-08-17T19:21:31;24.70;99.90
12049;DHT22;6085;49.452;8.502;2023-08-17T19:25:33;24.60;99.90
12049;DHT22;6085;49.452;8.502;2023-08-17T19:29:36;24.50;99.90
12049;DHT22;6085;49.452;8.502;2023-08-17T19:33:38;24.50;99.90
12049;DHT22;6085;49.452;8.502;2023-08-17T19:37:40;24.40;99.90
12049;DHT22;6085;49.452;8.502;2023-08-17T19:41:42;24.30;99.90
12049;DHT22;6085;49.452;8.502;2023-08-17T19:45:46;24.20;99.90
12049;DHT22;6085;49.452;8.502;2023-08-17T19:49:48;24.30;99.90
12049;DHT22;6085;49.452;8.502;2023-08-17T19:53:50;24.30;99.90
12049;DHT22;6085;49.452;8.502;2023-08-17T19:57:52;24.30;99.90
12049;DHT22;6085;49.452;8.502;2023-08-17T20:01:55;24.30;99.90
12049;DHT22;6085;49.452;8.502;2023-08-17T20:05:57;24.30;99.90
12049;DHT22;6085;49.452;8.502;2023-08-17T20:09:59;24.30;99.90
12049;DHT22;6085;49.452;8.502;2023-08-17T20:14:01;24.30;99.90
12049;DHT22;6085;49.452;8.502;2023-08-17T20:18:05;24.20;99.90
12049;DHT22;6085;49.452;8.502;2023-08-17T20:22:08;24.20;99.90
12049;DHT22;6085;49.452;8.502;2023-08-17T20:26:10;24.10;99.90
12049;DHT22;6085;49.452;8.502;2023-08-17T20:30:13;23.90;99.90
12049;DHT22;6085;49.452;8.502;2023-08-17T20:34:16;23.80;99.90
12049;DHT22;6085;49.452;8.502;2023-08-17T20:38:18;23.70;99.90
12049;DHT22;6085;49.452;8.502;2023-08-17T20:42:20;23.70;99.90
12049;DHT22;6085;49.452;8.502;2023-08-17T20:46:22;23.60;99.90
12049;DHT22;6085;49.452;8.502;2023-08-17T20:50:25;23.50;99.90
12049;DHT22;6085;49.452;8.502;2023-08-17T20:54:27;23.40;99.90
12049;DHT22;6085;49.452;8.502;2023-08-17T20:58:29;23.40;99.90
12049;DHT22;6085;49.452;8.502;2023-08-17T21:02:31;23.30;99.90
12049;DHT22;6085;49.452;8.502;2023-08-17T21:06:35;23.30;99.90
12049;DHT22;6085;49.452;8.502;2023-08-17T21:10:38;23.20;99.90
12049;DHT22;6085;49.452;8.502;2023-08-17T21:14:40;23.00;99.90
12049;DHT22;6085;49.452;8.502;2023-08-17T21:18:44;22.90;99.90
12049;DHT22;6085;49.452;8.502;2023-08-17T21:22:48;22.80;99.90
12049;DHT22;6085;49.452;8.502;2023-08-17T21:26:51;22.80;99.90
12049;DHT22;6085;49.452;8.502;2023-08-17T21:30:59;22.70;99.90
12049;DHT22;6085;49.452;8.502;2023-08-17T21:35:02;22.80;99.90
12049;DHT22;6085;49.452;8.502;2023-08-17T21:39:05;22.70;99.90
12049;DHT22;6085;49.452;8.502;2023-08-17T21:43:07;22.60;99.90
12049;DHT22;6085;49.452;8.502;2023-08-17T21:47:09;22.50;99.90
12049;DHT22;6085;49.452;8.502;2023-08-17T21:51:11;22.50;99.90
12049;DHT22;6085;49.452;8.502;2023-08-17T21:55:14;22.40;99.90
12049;DHT22;6085;49.452;8.502;2023-08-17T21:59:16;22.30;99.90
12049;DHT22;6085;49.452;8.502;2023-08-17T22:03:18;22.20;99.90
12049;DHT22;6085;49.452;8.502;2023-08-17T22:07:20;22.10;99.90
12049;DHT22;6085;49.452;8.502;2023-08-17T22:11:23;22.10;99.90
12049;DHT22;6085;49.452;8.502;2023-08-17T22:15:25;22.00;99.90
12049;DHT22;6085;49.452;8.502;2023-08-17T22:19:27;21.90;99.90
12049;DHT22;6085;49.452;8.502;2023-08-17T22:23:29;21.80;99.90
12049;DHT22;6085;49.452;8.502;2023-08-17T22:27:33;21.70;99.90
12049;DHT22;6085;49.452;8.502;2023-08-17T22:31:35;21.70;99.90
12049;DHT22;6085;49.452;8.502;2023-08-17T22:35:37;21.60;99.90
12049;DHT22;6085;49.452;8.502;2023-08-17T22:39:39;21.60;99.90
12049;DHT22;6085;49.452;8.502;2023-08-17T22:43:43;21.60;99.90
12049;DHT22;6085;49.452;8.502;2023-08-17T22:47:45;21.60;99.90
12049;DHT22;6085;49.452;8.502;2023-08-17T22:51:48;21.60;99.90
12049;DHT22;6085;49.452;8.502;2023-08-17T22:55:50;21.50;99.90
12049;DHT22;6085;49.452;8.502;2023-08-17T22:59:53;21.40;99.90
12049;DHT22;6085;49.452;8.502;2023-08-17T23:03:55;21.40;99.90
12049;DHT22;6085;49.452;8.502;2023-08-17T23:07:57;21.40;99.90
12049;DHT22;6085;49.452;8.502;2023-08-17T23:11:59;21.30;99.90
12049;DHT22;6085;49.452;8.502;2023-08-17T23:16:02;21.30;99.90
12049;DHT22;6085;49.452;8.502;2023-08-17T23:20:06;21.30;99.90
12049;DHT22;6085;49.452;8.502;2023-08-17T23:24:08;21.20;99.90
12049;DHT22;6085;49.452;8.502;2023-08-17T23:28:10;21.20;99.90
12049;DHT22;6085;49.452;8.502;2023-08-17T23:32:13;21.20;99.90
12049;DHT22;6085;49.452;8.502;2023-08-17T23:36:15;21.20;99.90
12049;DHT22;6085;49.452;8.502;2023-08-17T23:40:17;21.10;99.90
12049;DHT22;6085;49.452;8.502;2023-08-17T23:44:20;21.10;99.90
12049;DHT22;6085;49.452;8.502;2023-08-17T23:48:23;21.10;99.90
12049;DHT22;6085;49.452;8.502;2023-08-17T23:52:25;21.10;99.90
12049;DHT22;6085;49.452;8.502;2023-08-17T23:56:27;21.00;99.90
